sensor_id;sensor_type;location;lat;lon;timestamp;P1;durP1;ratioP1;P2;durP2;ratioP2
25391;SDS011;13329;48.402;11.718;2023-04-24T00:00:40;2.27;;;1.23;;
25391;SDS011;13329;48.402;11.718;2023-04-24T00:03:06;2.87;;;1.57;;
25391;SDS011;13329;48.402;11.718;2023-04-24T00:05:31;2.95;;;1.63;;
25391;SDS011;13329;48.402;11.718;2023-04-24T00:07:57;1.63;;;1.27;;
25391;SDS011;13329;48.402;11.718;2023-04-24T00:10:23;1.97;;;1.37;;
25391;SDS011;13329;48.402;11.718;2023-04-24T00:12:48;1.33;;;1.08;;
25391;SDS011;13329;48.402;11.718;2023-04-24T00:15:13;2.17;;;1.30;;
25391;SDS011;13329;48.402;11.718;2023-04-24T00:17:38;2.80;;;1.30;;
25391;SDS011;13329;48.402;11.718;2023-04-24T00:20:04;4.30;;;1.70;;
25391;SDS011;13329;48.402;11.718;2023-04-24T00:22:29;1.23;;;0.90;;
25391;SDS011;13329;48.402;11.718;2023-04-24T00:24:55;1.50;;;1.00;;
25391;SDS011;13329;48.402;11.718;2023-04-24T00:27:20;2.33;;;1.17;;
25391;SDS011;13329;48.402;11.718;2023-04-24T00:29:45;1.77;;;1.07;;
25391;SDS011;13329;48.402;11.718;2023-04-24T00:32:11;2.78;;;1.30;;
25391;SDS011;13329;48.402;11.718;2023-04-24T00:34:36;1.77;;;1.20;;
25391;SDS011;13329;48.402;11.718;2023-04-24T00:37:01;3.27;;;1.17;;
25391;SDS011;13329;48.402;11.718;2023-04-24T00:39:26;1.37;;;1.10;;
25391;SDS011;13329;48.402;11.718;2023-04-24T00:41:51;2.63;;;1.00;;
25391;SDS011;13329;48.402;11.718;2023-04-24T00:44:17;2.17;;;1.00;;
25391;SDS011;13329;48.402;11.718;2023-04-24T00:46:42;1.67;;;1.17;;
25391;SDS011;13329;48.402;11.718;2023-04-24T00:49:07;1.20;;;0.80;;
25391;SDS011;13329;48.402;11.718;2023-04-24T00:51:33;2.67;;;1.10;;
25391;SDS011;13329;48.402;11.718;2023-04-24T00:53:59;2.28;;;1.05;;
25391;SDS011;13329;48.402;11.718;2023-04-24T00:56:25;1.88;;;1.05;;
25391;SDS011;13329;48.402;11.718;2023-04-24T00:58:50;1.50;;;0.80;;
25391;SDS011;13329;48.402;11.718;2023-04-24T01:01:15;2.38;;;1.00;;
25391;SDS011;13329;48.402;11.718;2023-04-24T01:03:40;4.37;;;1.20;;
25391;SDS011;13329;48.402;11.718;2023-04-24T01:06:06;1.58;;;1.00;;
25391;SDS011;13329;48.402;11.718;2023-04-24T01:08:31;2.35;;;1.40;;
25391;SDS011;13329;48.402;11.718;2023-04-24T01:10:57;1.75;;;1.08;;
25391;SDS011;13329;48.402;11.718;2023-04-24T01:13:22;1.33;;;0.90;;
25391;SDS011;13329;48.402;11.718;2023-04-24T01:15:48;3.07;;;1.07;;
25391;SDS011;13329;48.402;11.718;2023-04-24T01:18:13;2.55;;;1.10;;
25391;SDS011;13329;48.402;11.718;2023-04-24T01:20:39;1.27;;;1.00;;
25391;SDS011;13329;48.402;11.718;2023-04-24T01:23:04;3.65;;;1.05;;
25391;SDS011;13329;48.402;11.718;2023-04-24T01:25:30;1.80;;;0.88;;
25391;SDS011;13329;48.402;11.718;2023-04-24T01:27:55;1.33;;;0.70;;
25391;SDS011;13329;48.402;11.718;2023-04-24T01:30:20;3.30;;;0.90;;
25391;SDS011;13329;48.402;11.718;2023-04-24T01:32:46;1.60;;;0.85;;
25391;SDS011;13329;48.402;11.718;2023-04-24T01:35:11;1.15;;;0.80;;
25391;SDS011;13329;48.402;11.718;2023-04-24T01:37:36;1.00;;;0.70;;
25391;SDS011;13329;48.402;11.718;2023-04-24T01:40:05;1.17;;;0.98;;
25391;SDS011;13329;48.402;11.718;2023-04-24T01:42:31;1.10;;;0.80;;
25391;SDS011;13329;48.402;11.718;2023-04-24T01:44:56;0.80;;;0.60;;
25391;SDS011;13329;48.402;11.718;2023-04-24T01:47:22;2.08;;;0.77;;
25391;SDS011;13329;48.402;11.718;2023-04-24T01:49:48;0.88;;;0.50;;
25391;SDS011;13329;48.402;11.718;2023-04-24T01:52:13;0.70;;;0.55;;
25391;SDS011;13329;48.402;11.718;2023-04-24T01:54:38;1.00;;;0.70;;
25391;SDS011;13329;48.402;11.718;2023-04-24T01:57:03;5.53;;;1.20;;
25391;SDS011;13329;48.402;11.718;2023-04-24T01:59:28;1.10;;;0.83;;
25391;SDS011;13329;48.402;11.718;2023-04-24T02:01:54;1.77;;;0.68;;
25391;SDS011;13329;48.402;11.718;2023-04-24T02:04:20;1.20;;;0.70;;
25391;SDS011;13329;48.402;11.718;2023-04-24T02:06:45;1.52;;;0.90;;
25391;SDS011;13329;48.402;11.718;2023-04-24T02:09:10;1.08;;;0.60;;
25391;SDS011;13329;48.402;11.718;2023-04-24T02:11:35;0.70;;;0.50;;
25391;SDS011;13329;48.402;11.718;2023-04-24T02:14:00;1.20;;;0.50;;
25391;SDS011;13329;48.402;11.718;2023-04-24T02:16:26;0.93;;;0.70;;
25391;SDS011;13329;48.402;11.718;2023-04-24T02:18:51;0.97;;;0.70;;
25391;SDS011;13329;48.402;11.718;2023-04-24T02:21:16;1.97;;;0.73;;
25391;SDS011;13329;48.402;11.718;2023-04-24T02:23:41;1.03;;;0.60;;
25391;SDS011;13329;48.402;11.718;2023-04-24T02:26:06;2.30;;;0.57;;
25391;SDS011;13329;48.402;11.718;2023-04-24T02:28:31;4.50;;;0.50;;
25391;SDS011;13329;48.402;11.718;2023-04-24T02:30:57;0.83;;;0.70;;
25391;SDS011;13329;48.402;11.718;2023-04-24T02:33:22;1.37;;;0.80;;
25391;SDS011;13329;48.402;11.718;2023-04-24T02:35:47;0.90;;;0.60;;
25391;SDS011;13329;48.402;11.718;2023-04-24T02:38:12;2.00;;;0.87;;
25391;SDS011;13329;48.402;11.718;2023-04-24T02:40:37;1.70;;;0.77;;
25391;SDS011;13329;48.402;11.718;2023-04-24T02:43:03;1.37;;;0.80;;
25391;SDS011;13329;48.402;11.718;2023-04-24T02:45:28;0.97;;;0.70;;
25391;SDS011;13329;48.402;11.718;2023-04-24T02:47:53;0.80;;;0.80;;
25391;SDS011;13329;48.402;11.718;2023-04-24T02:50:18;3.50;;;0.88;;
25391;SDS011;13329;48.402;11.718;2023-04-24T02:52:43;0.83;;;0.67;;
25391;SDS011;13329;48.402;11.718;2023-04-24T02:55:08;0.50;;;0.40;;
25391;SDS011;13329;48.402;11.718;2023-04-24T02:57:34;1.48;;;0.60;;
25391;SDS011;13329;48.402;11.718;2023-04-24T02:59:59;0.93;;;0.30;;
25391;SDS011;13329;48.402;11.718;2023-04-24T03:02:24;1.00;;;0.50;;
25391;SDS011;13329;48.402;11.718;2023-04-24T03:04:49;1.20;;;0.60;;
25391;SDS011;13329;48.402;11.718;2023-04-24T03:07:15;3.55;;;0.52;;
25391;SDS011;13329;48.402;11.718;2023-04-24T03:09:40;1.00;;;0.67;;
25391;SDS011;13329;48.402;11.718;2023-04-24T03:12:05;0.50;;;0.32;;
25391;SDS011;13329;48.402;11.718;2023-04-24T03:14:30;1.02;;;0.70;;
25391;SDS011;13329;48.402;11.718;2023-04-24T03:16:56;0.30;;;0.30;;
25391;SDS011;13329;48.402;11.718;2023-04-24T03:19:21;0.63;;;0.60;;
25391;SDS011;13329;48.402;11.718;2023-04-24T03:21:46;1.03;;;0.40;;
25391;SDS011;13329;48.402;11.718;2023-04-24T03:24:11;2.43;;;0.50;;
25391;SDS011;13329;48.402;11.718;2023-04-24T03:26:37;0.77;;;0.37;;
25391;SDS011;13329;48.402;11.718;2023-04-24T03:29:02;0.37;;;0.33;;
25391;SDS011;13329;48.402;11.718;2023-04-24T03:31:27;2.47;;;0.63;;
25391;SDS011;13329;48.402;11.718;2023-04-24T03:33:52;0.67;;;0.50;;
25391;SDS011;13329;48.402;11.718;2023-04-24T03:36:17;0.80;;;0.60;;
25391;SDS011;13329;48.402;11.718;2023-04-24T03:38:44;0.50;;;0.20;;
25391;SDS011;13329;48.402;11.718;2023-04-24T03:41:10;0.40;;;0.40;;
25391;SDS011;13329;48.402;11.718;2023-04-24T03:43:35;0.77;;;0.55;;
25391;SDS011;13329;48.402;11.718;2023-04-24T03:46:00;0.98;;;0.50;;
25391;SDS011;13329;48.402;11.718;2023-04-24T03:48:26;0.80;;;0.60;;
25391;SDS011;13329;48.402;11.718;2023-04-24T03:50:51;1.07;;;0.53;;
25391;SDS011;13329;48.402;11.718;2023-04-24T03:53:16;4.03;;;0.60;;
25391;SDS011;13329;48.402;11.718;2023-04-24T03:55:41;2.80;;;0.70;;
25391;SDS011;13329;48.402;11.718;2023-04-24T03:58:06;2.55;;;0.50;;
25391;SDS011;13329;48.402;11.718;2023-04-24T04:00:32;0.70;;;0.60;;
25391;SDS011;13329;48.402;11.718;2023-04-24T04:02:58;1.10;;;0.55;;
25391;SDS011;13329;48.402;11.718;2023-04-24T04:05:23;2.13;;;0.60;;
25391;SDS011;13329;48.402;11.718;2023-04-24T04:07:48;1.33;;;0.63;;
25391;SDS011;13329;48.402;11.718;2023-04-24T04:10:13;1.03;;;0.70;;
25391;SDS011;13329;48.402;11.718;2023-04-24T04:12:39;5.07;;;1.65;;
25391;SDS011;13329;48.402;11.718;2023-04-24T04:15:04;9.37;;;1.87;;
25391;SDS011;13329;48.402;11.718;2023-04-24T04:17:30;9.48;;;2.28;;
25391;SDS011;13329;48.402;11.718;2023-04-24T04:19:56;13.52;;;2.42;;
25391;SDS011;13329;48.402;11.718;2023-04-24T04:22:21;16.90;;;3.60;;
25391;SDS011;13329;48.402;11.718;2023-04-24T04:24:46;19.83;;;3.93;;
25391;SDS011;13329;48.402;11.718;2023-04-24T04:27:11;42.33;;;5.45;;
25391;SDS011;13329;48.402;11.718;2023-04-24T04:29:37;13.75;;;2.38;;
25391;SDS011;13329;48.402;11.718;2023-04-24T04:32:03;14.52;;;2.88;;
25391;SDS011;13329;48.402;11.718;2023-04-24T04:34:28;22.50;;;3.30;;
25391;SDS011;13329;48.402;11.718;2023-04-24T04:36:54;16.88;;;2.30;;
25391;SDS011;13329;48.402;11.718;2023-04-24T04:39:19;1.13;;;0.80;;
25391;SDS011;13329;48.402;11.718;2023-04-24T04:41:45;1.20;;;0.60;;
25391;SDS011;13329;48.402;11.718;2023-04-24T04:44:13;0.65;;;0.52;;
25391;SDS011;13329;48.402;11.718;2023-04-24T04:46:39;3.23;;;0.70;;
25391;SDS011;13329;48.402;11.718;2023-04-24T04:49:04;1.33;;;0.80;;
25391;SDS011;13329;48.402;11.718;2023-04-24T04:51:29;4.38;;;0.80;;
25391;SDS011;13329;48.402;11.718;2023-04-24T04:53:55;1.27;;;0.90;;
25391;SDS011;13329;48.402;11.718;2023-04-24T04:56:21;1.00;;;0.70;;
25391;SDS011;13329;48.402;11.718;2023-04-24T04:58:46;0.73;;;0.60;;
25391;SDS011;13329;48.402;11.718;2023-04-24T05:01:12;0.80;;;0.50;;
25391;SDS011;13329;48.402;11.718;2023-04-24T05:03:37;1.53;;;0.80;;
25391;SDS011;13329;48.402;11.718;2023-04-24T05:06:02;0.93;;;0.63;;
25391;SDS011;13329;48.402;11.718;2023-04-24T05:08:27;2.05;;;1.00;;
25391;SDS011;13329;48.402;11.718;2023-04-24T05:10:53;1.13;;;0.93;;
25391;SDS011;13329;48.402;11.718;2023-04-24T05:13:18;0.70;;;0.70;;
25391;SDS011;13329;48.402;11.718;2023-04-24T05:15:43;1.23;;;0.80;;
25391;SDS011;13329;48.402;11.718;2023-04-24T05:18:08;1.27;;;0.90;;
25391;SDS011;13329;48.402;11.718;2023-04-24T05:20:33;0.77;;;0.60;;
25391;SDS011;13329;48.402;11.718;2023-04-24T05:22:59;1.53;;;0.97;;
25391;SDS011;13329;48.402;11.718;2023-04-24T05:25:24;2.97;;;0.43;;
25391;SDS011;13329;48.402;11.718;2023-04-24T05:27:49;0.93;;;0.60;;
25391;SDS011;13329;48.402;11.718;2023-04-24T05:30:14;1.60;;;0.50;;
25391;SDS011;13329;48.402;11.718;2023-04-24T05:32:40;1.40;;;0.80;;
25391;SDS011;13329;48.402;11.718;2023-04-24T05:35:05;0.40;;;0.20;;
25391;SDS011;13329;48.402;11.718;2023-04-24T05:37:31;1.88;;;0.80;;
25391;SDS011;13329;48.402;11.718;2023-04-24T05:39:56;0.50;;;0.30;;
25391;SDS011;13329;48.402;11.718;2023-04-24T05:42:21;0.67;;;0.60;;
25391;SDS011;13329;48.402;11.718;2023-04-24T05:44:46;0.30;;;0.30;;
25391;SDS011;13329;48.402;11.718;2023-04-24T05:47:12;1.63;;;0.90;;
25391;SDS011;13329;48.402;11.718;2023-04-24T05:49:37;1.00;;;0.70;;
25391;SDS011;13329;48.402;11.718;2023-04-24T05:52:02;1.77;;;0.90;;
25391;SDS011;13329;48.402;11.718;2023-04-24T05:54:29;1.13;;;0.70;;
25391;SDS011;13329;48.402;11.718;2023-04-24T05:56:54;0.60;;;0.53;;
25391;SDS011;13329;48.402;11.718;2023-04-24T05:59:20;2.72;;;0.80;;
25391;SDS011;13329;48.402;11.718;2023-04-24T06:01:45;1.17;;;0.70;;
25391;SDS011;13329;48.402;11.718;2023-04-24T06:04:11;0.80;;;0.60;;
25391;SDS011;13329;48.402;11.718;2023-04-24T06:06:38;2.95;;;0.77;;
25391;SDS011;13329;48.402;11.718;2023-04-24T06:09:03;2.77;;;0.60;;
25391;SDS011;13329;48.402;11.718;2023-04-24T06:11:28;3.57;;;0.50;;
25391;SDS011;13329;48.402;11.718;2023-04-24T06:13:53;0.87;;;0.73;;
25391;SDS011;13329;48.402;11.718;2023-04-24T06:16:19;2.90;;;0.70;;
25391;SDS011;13329;48.402;11.718;2023-04-24T06:18:44;0.30;;;0.30;;
25391;SDS011;13329;48.402;11.718;2023-04-24T06:21:11;1.23;;;0.73;;
25391;SDS011;13329;48.402;11.718;2023-04-24T06:23:37;0.37;;;0.37;;
25391;SDS011;13329;48.402;11.718;2023-04-24T06:26:02;3.53;;;0.60;;
25391;SDS011;13329;48.402;11.718;2023-04-24T06:28:27;0.65;;;0.52;;
25391;SDS011;13329;48.402;11.718;2023-04-24T06:30:52;0.33;;;0.33;;
25391;SDS011;13329;48.402;11.718;2023-04-24T06:33:17;1.03;;;0.60;;
25391;SDS011;13329;48.402;11.718;2023-04-24T06:35:43;0.50;;;0.50;;
25391;SDS011;13329;48.402;11.718;2023-04-24T06:38:08;1.20;;;0.80;;
25391;SDS011;13329;48.402;11.718;2023-04-24T06:40:33;0.63;;;0.57;;
25391;SDS011;13329;48.402;11.718;2023-04-24T06:42:58;1.03;;;0.77;;
25391;SDS011;13329;48.402;11.718;2023-04-24T06:45:25;0.52;;;0.40;;
25391;SDS011;13329;48.402;11.718;2023-04-24T06:47:50;1.20;;;0.82;;
25391;SDS011;13329;48.402;11.718;2023-04-24T06:50:15;0.60;;;0.30;;
25391;SDS011;13329;48.402;11.718;2023-04-24T06:52:41;0.20;;;0.20;;
25391;SDS011;13329;48.402;11.718;2023-04-24T06:55:06;0.10;;;0.10;;
25391;SDS011;13329;48.402;11.718;2023-04-24T06:57:31;0.20;;;0.20;;
25391;SDS011;13329;48.402;11.718;2023-04-24T06:59:56;0.20;;;0.20;;
25391;SDS011;13329;48.402;11.718;2023-04-24T07:02:22;0.60;;;0.37;;
25391;SDS011;13329;48.402;11.718;2023-04-24T07:04:47;0.40;;;0.35;;
25391;SDS011;13329;48.402;11.718;2023-04-24T07:07:13;0.30;;;0.30;;
25391;SDS011;13329;48.402;11.718;2023-04-24T07:09:39;0.43;;;0.38;;
25391;SDS011;13329;48.402;11.718;2023-04-24T07:12:07;0.73;;;0.22;;
25391;SDS011;13329;48.402;11.718;2023-04-24T07:14:32;0.22;;;0.22;;
25391;SDS011;13329;48.402;11.718;2023-04-24T07:16:57;0.60;;;0.50;;
25391;SDS011;13329;48.402;11.718;2023-04-24T07:19:23;0.55;;;0.30;;
25391;SDS011;13329;48.402;11.718;2023-04-24T07:21:48;1.03;;;0.90;;
25391;SDS011;13329;48.402;11.718;2023-04-24T07:24:13;0.47;;;0.28;;
25391;SDS011;13329;48.402;11.718;2023-04-24T07:26:38;0.03;;;0.03;;
25391;SDS011;13329;48.402;11.718;2023-04-24T07:29:04;1.08;;;0.32;;
25391;SDS011;13329;48.402;11.718;2023-04-24T07:31:31;0.55;;;0.40;;
25391;SDS011;13329;48.402;11.718;2023-04-24T07:33:56;0.32;;;0.30;;
25391;SDS011;13329;48.402;11.718;2023-04-24T07:36:23;0.75;;;0.30;;
25391;SDS011;13329;48.402;11.718;2023-04-24T07:38:49;1.45;;;0.50;;
25391;SDS011;13329;48.402;11.718;2023-04-24T07:41:14;0.35;;;0.30;;
25391;SDS011;13329;48.402;11.718;2023-04-24T07:43:39;0.20;;;0.20;;
25391;SDS011;13329;48.402;11.718;2023-04-24T07:46:05;0.40;;;0.30;;
25391;SDS011;13329;48.402;11.718;2023-04-24T07:48:30;0.40;;;0.15;;
25391;SDS011;13329;48.402;11.718;2023-04-24T07:50:56;0.47;;;0.33;;
25391;SDS011;13329;48.402;11.718;2023-04-24T07:53:21;2.10;;;0.30;;
25391;SDS011;13329;48.402;11.718;2023-04-24T07:55:46;0.50;;;0.20;;
25391;SDS011;13329;48.402;11.718;2023-04-24T07:58:11;0.40;;;0.30;;
25391;SDS011;13329;48.402;11.718;2023-04-24T08:00:36;0.20;;;0.20;;
25391;SDS011;13329;48.402;11.718;2023-04-24T08:03:02;0.27;;;0.27;;
25391;SDS011;13329;48.402;11.718;2023-04-24T08:05:27;1.80;;;0.30;;
25391;SDS011;13329;48.402;11.718;2023-04-24T08:07:53;0.10;;;0.10;;
25391;SDS011;13329;48.402;11.718;2023-04-24T08:10:18;0.68;;;0.50;;
25391;SDS011;13329;48.402;11.718;2023-04-24T08:12:43;1.10;;;0.60;;
25391;SDS011;13329;48.402;11.718;2023-04-24T08:15:09;0.83;;;0.43;;
25391;SDS011;13329;48.402;11.718;2023-04-24T08:17:34;0.30;;;0.30;;
25391;SDS011;13329;48.402;11.718;2023-04-24T08:20:00;0.20;;;0.20;;
25391;SDS011;13329;48.402;11.718;2023-04-24T08:22:26;1.98;;;0.13;;
25391;SDS011;13329;48.402;11.718;2023-04-24T08:24:52;0.40;;;0.40;;
25391;SDS011;13329;48.402;11.718;2023-04-24T08:27:17;0.30;;;0.20;;
25391;SDS011;13329;48.402;11.718;2023-04-24T08:29:42;1.30;;;0.20;;
25391;SDS011;13329;48.402;11.718;2023-04-24T08:32:07;0.40;;;0.40;;
25391;SDS011;13329;48.402;11.718;2023-04-24T08:34:33;0.30;;;0.30;;
25391;SDS011;13329;48.402;11.718;2023-04-24T08:36:58;0.37;;;0.37;;
25391;SDS011;13329;48.402;11.718;2023-04-24T08:39:23;0.40;;;0.40;;
25391;SDS011;13329;48.402;11.718;2023-04-24T08:41:48;0.70;;;0.30;;
25391;SDS011;13329;48.402;11.718;2023-04-24T08:44:13;1.03;;;0.60;;
25391;SDS011;13329;48.402;11.718;2023-04-24T08:46:40;0.60;;;0.43;;
25391;SDS011;13329;48.402;11.718;2023-04-24T08:49:07;3.13;;;0.60;;
25391;SDS011;13329;48.402;11.718;2023-04-24T08:51:32;0.80;;;0.70;;
25391;SDS011;13329;48.402;11.718;2023-04-24T08:53:57;0.80;;;0.60;;
25391;SDS011;13329;48.402;11.718;2023-04-24T08:56:23;1.20;;;0.70;;
25391;SDS011;13329;48.402;11.718;2023-04-24T08:58:50;0.60;;;0.60;;
25391;SDS011;13329;48.402;11.718;2023-04-24T09:01:15;1.40;;;0.60;;
25391;SDS011;13329;48.402;11.718;2023-04-24T09:03:40;0.93;;;0.73;;
25391;SDS011;13329;48.402;11.718;2023-04-24T09:06:06;1.20;;;0.80;;
25391;SDS011;13329;48.402;11.718;2023-04-24T09:08:31;1.90;;;0.47;;
25391;SDS011;13329;48.402;11.718;2023-04-24T09:10:57;1.27;;;0.65;;
25391;SDS011;13329;48.402;11.718;2023-04-24T09:13:23;0.85;;;0.70;;
25391;SDS011;13329;48.402;11.718;2023-04-24T09:15:49;0.63;;;0.50;;
25391;SDS011;13329;48.402;11.718;2023-04-24T09:18:14;0.90;;;0.50;;
25391;SDS011;13329;48.402;11.718;2023-04-24T09:23:25;2.67;;;0.52;;
25391;SDS011;13329;48.402;11.718;2023-04-24T09:25:54;1.17;;;0.63;;
25391;SDS011;13329;48.402;11.718;2023-04-24T09:28:19;0.47;;;0.40;;
25391;SDS011;13329;48.402;11.718;2023-04-24T09:31:01;0.63;;;0.40;;
25391;SDS011;13329;48.402;11.718;2023-04-24T09:33:26;0.50;;;0.50;;
25391;SDS011;13329;48.402;11.718;2023-04-24T09:35:51;0.50;;;0.50;;
25391;SDS011;13329;48.402;11.718;2023-04-24T09:38:17;0.57;;;0.45;;
25391;SDS011;13329;48.402;11.718;2023-04-24T09:40:42;0.77;;;0.60;;
25391;SDS011;13329;48.402;11.718;2023-04-24T09:43:10;0.50;;;0.50;;
25391;SDS011;13329;48.402;11.718;2023-04-24T09:45:36;0.50;;;0.30;;
25391;SDS011;13329;48.402;11.718;2023-04-24T09:48:01;6.10;;;0.80;;
25391;SDS011;13329;48.402;11.718;2023-04-24T09:50:26;1.07;;;0.70;;
25391;SDS011;13329;48.402;11.718;2023-04-24T09:52:58;1.13;;;0.70;;
25391;SDS011;13329;48.402;11.718;2023-04-24T09:55:23;0.77;;;0.68;;
25391;SDS011;13329;48.402;11.718;2023-04-24T09:57:49;1.85;;;0.50;;
25391;SDS011;13329;48.402;11.718;2023-04-24T10:00:20;2.78;;;0.60;;
25391;SDS011;13329;48.402;11.718;2023-04-24T10:02:49;0.93;;;0.50;;
25391;SDS011;13329;48.402;11.718;2023-04-24T10:05:14;0.55;;;0.45;;
25391;SDS011;13329;48.402;11.718;2023-04-24T10:07:40;0.70;;;0.50;;
25391;SDS011;13329;48.402;11.718;2023-04-24T10:10:05;0.73;;;0.67;;
25391;SDS011;13329;48.402;11.718;2023-04-24T10:12:31;0.73;;;0.47;;
25391;SDS011;13329;48.402;11.718;2023-04-24T10:14:56;0.98;;;0.85;;
25391;SDS011;13329;48.402;11.718;2023-04-24T10:17:22;1.45;;;0.90;;
25391;SDS011;13329;48.402;11.718;2023-04-24T10:19:48;1.10;;;0.70;;
25391;SDS011;13329;48.402;11.718;2023-04-24T10:22:14;1.20;;;0.77;;
25391;SDS011;13329;48.402;11.718;2023-04-24T10:24:40;2.00;;;0.98;;
25391;SDS011;13329;48.402;11.718;2023-04-24T10:27:06;1.73;;;0.70;;
25391;SDS011;13329;48.402;11.718;2023-04-24T10:29:31;1.20;;;0.95;;
25391;SDS011;13329;48.402;11.718;2023-04-24T10:31:56;0.88;;;0.60;;
25391;SDS011;13329;48.402;11.718;2023-04-24T10:34:22;0.50;;;0.50;;
25391;SDS011;13329;48.402;11.718;2023-04-24T10:36:48;1.23;;;0.85;;
25391;SDS011;13329;48.402;11.718;2023-04-24T10:39:15;2.22;;;0.90;;
25391;SDS011;13329;48.402;11.718;2023-04-24T10:41:41;1.42;;;0.70;;
25391;SDS011;13329;48.402;11.718;2023-04-24T10:44:13;1.00;;;0.77;;
25391;SDS011;13329;48.402;11.718;2023-04-24T10:46:42;0.70;;;0.60;;
25391;SDS011;13329;48.402;11.718;2023-04-24T10:49:08;1.13;;;0.77;;
25391;SDS011;13329;48.402;11.718;2023-04-24T10:51:50;1.75;;;0.77;;
25391;SDS011;13329;48.402;11.718;2023-04-24T10:54:25;1.50;;;0.70;;
25391;SDS011;13329;48.402;11.718;2023-04-24T10:56:51;0.80;;;0.57;;
25391;SDS011;13329;48.402;11.718;2023-04-24T10:59:34;0.77;;;0.60;;
25391;SDS011;13329;48.402;11.718;2023-04-24T11:01:59;0.70;;;0.70;;
25391;SDS011;13329;48.402;11.718;2023-04-24T11:04:29;0.98;;;0.73;;
25391;SDS011;13329;48.402;11.718;2023-04-24T11:06:54;1.73;;;0.70;;
25391;SDS011;13329;48.402;11.718;2023-04-24T11:09:20;0.98;;;0.50;;
25391;SDS011;13329;48.402;11.718;2023-04-24T11:11:46;1.50;;;0.57;;
25391;SDS011;13329;48.402;11.718;2023-04-24T11:14:14;1.73;;;0.70;;
25391;SDS011;13329;48.402;11.718;2023-04-24T11:16:52;1.52;;;0.70;;
25391;SDS011;13329;48.402;11.718;2023-04-24T11:19:18;1.98;;;0.70;;
25391;SDS011;13329;48.402;11.718;2023-04-24T11:21:47;1.40;;;0.40;;
25391;SDS011;13329;48.402;11.718;2023-04-24T11:26:47;1.88;;;0.90;;
25391;SDS011;13329;48.402;11.718;2023-04-24T11:29:12;2.23;;;0.57;;
25391;SDS011;13329;48.402;11.718;2023-04-24T11:31:38;0.98;;;0.65;;
25391;SDS011;13329;48.402;11.718;2023-04-24T11:34:10;2.72;;;0.50;;
25391;SDS011;13329;48.402;11.718;2023-04-24T11:36:36;3.20;;;0.63;;
25391;SDS011;13329;48.402;11.718;2023-04-24T11:39:01;2.55;;;0.75;;
25391;SDS011;13329;48.402;11.718;2023-04-24T11:41:26;0.30;;;0.30;;
25391;SDS011;13329;48.402;11.718;2023-04-24T11:43:52;1.33;;;0.50;;
25391;SDS011;13329;48.402;11.718;2023-04-24T11:46:17;0.65;;;0.60;;
25391;SDS011;13329;48.402;11.718;2023-04-24T11:48:45;0.43;;;0.30;;
25391;SDS011;13329;48.402;11.718;2023-04-24T11:51:12;2.35;;;0.73;;
25391;SDS011;13329;48.402;11.718;2023-04-24T11:53:37;1.42;;;0.60;;
25391;SDS011;13329;48.402;11.718;2023-04-24T11:56:03;2.83;;;0.60;;
25391;SDS011;13329;48.402;11.718;2023-04-24T11:58:28;1.95;;;0.85;;
25391;SDS011;13329;48.402;11.718;2023-04-24T12:00:56;1.50;;;0.60;;
25391;SDS011;13329;48.402;11.718;2023-04-24T12:03:23;0.82;;;0.63;;
25391;SDS011;13329;48.402;11.718;2023-04-24T12:05:48;3.87;;;0.57;;
25391;SDS011;13329;48.402;11.718;2023-04-24T12:08:26;0.50;;;0.50;;
25391;SDS011;13329;48.402;11.718;2023-04-24T12:10:51;1.35;;;0.80;;
25391;SDS011;13329;48.402;11.718;2023-04-24T12:13:17;1.08;;;0.85;;
25391;SDS011;13329;48.402;11.718;2023-04-24T12:15:42;2.17;;;0.83;;
25391;SDS011;13329;48.402;11.718;2023-04-24T12:18:07;1.23;;;0.65;;
25391;SDS011;13329;48.402;11.718;2023-04-24T12:20:36;0.52;;;0.50;;
25391;SDS011;13329;48.402;11.718;2023-04-24T12:23:01;1.60;;;0.82;;
25391;SDS011;13329;48.402;11.718;2023-04-24T12:25:27;1.00;;;0.70;;
25391;SDS011;13329;48.402;11.718;2023-04-24T12:27:54;1.40;;;0.73;;
25391;SDS011;13329;48.402;11.718;2023-04-24T12:30:20;0.85;;;0.60;;
25391;SDS011;13329;48.402;11.718;2023-04-24T12:32:46;1.45;;;0.80;;
25391;SDS011;13329;48.402;11.718;2023-04-24T12:35:13;1.63;;;0.70;;
25391;SDS011;13329;48.402;11.718;2023-04-24T12:37:38;0.90;;;0.70;;
25391;SDS011;13329;48.402;11.718;2023-04-24T12:40:08;4.68;;;0.70;;
25391;SDS011;13329;48.402;11.718;2023-04-24T12:42:34;0.70;;;0.60;;
25391;SDS011;13329;48.402;11.718;2023-04-24T12:45:00;1.70;;;0.90;;
25391;SDS011;13329;48.402;11.718;2023-04-24T12:47:26;1.23;;;0.75;;
25391;SDS011;13329;48.402;11.718;2023-04-24T12:49:51;0.80;;;0.70;;
25391;SDS011;13329;48.402;11.718;2023-04-24T12:52:17;0.52;;;0.40;;
25391;SDS011;13329;48.402;11.718;2023-04-24T12:54:42;0.75;;;0.65;;
25391;SDS011;13329;48.402;11.718;2023-04-24T12:57:07;1.97;;;0.77;;
25391;SDS011;13329;48.402;11.718;2023-04-24T12:59:33;2.90;;;0.70;;
25391;SDS011;13329;48.402;11.718;2023-04-24T13:01:58;0.90;;;0.80;;
25391;SDS011;13329;48.402;11.718;2023-04-24T13:04:23;2.33;;;0.60;;
25391;SDS011;13329;48.402;11.718;2023-04-24T13:06:49;3.97;;;0.65;;
25391;SDS011;13329;48.402;11.718;2023-04-24T13:09:15;0.57;;;0.57;;
25391;SDS011;13329;48.402;11.718;2023-04-24T13:11:40;0.60;;;0.52;;
25391;SDS011;13329;48.402;11.718;2023-04-24T13:14:05;0.98;;;0.60;;
25391;SDS011;13329;48.402;11.718;2023-04-24T13:16:30;3.13;;;0.70;;
25391;SDS011;13329;48.402;11.718;2023-04-24T13:18:55;1.07;;;0.70;;
25391;SDS011;13329;48.402;11.718;2023-04-24T13:21:20;2.10;;;0.50;;
25391;SDS011;13329;48.402;11.718;2023-04-24T13:23:45;0.87;;;0.43;;
25391;SDS011;13329;48.402;11.718;2023-04-24T13:26:11;0.90;;;0.60;;
25391;SDS011;13329;48.402;11.718;2023-04-24T13:28:36;0.47;;;0.40;;
25391;SDS011;13329;48.402;11.718;2023-04-24T13:31:03;0.80;;;0.45;;
25391;SDS011;13329;48.402;11.718;2023-04-24T13:33:28;1.70;;;0.60;;
25391;SDS011;13329;48.402;11.718;2023-04-24T13:35:53;2.42;;;0.70;;
25391;SDS011;13329;48.402;11.718;2023-04-24T13:38:18;0.80;;;0.52;;
25391;SDS011;13329;48.402;11.718;2023-04-24T13:40:46;1.52;;;0.40;;
25391;SDS011;13329;48.402;11.718;2023-04-24T13:43:11;0.30;;;0.30;;
25391;SDS011;13329;48.402;11.718;2023-04-24T13:45:36;1.00;;;0.60;;
25391;SDS011;13329;48.402;11.718;2023-04-24T13:48:02;0.35;;;0.35;;
25391;SDS011;13329;48.402;11.718;2023-04-24T13:50:28;0.45;;;0.45;;
25391;SDS011;13329;48.402;11.718;2023-04-24T13:52:53;0.80;;;0.63;;
25391;SDS011;13329;48.402;11.718;2023-04-24T13:55:19;1.00;;;0.70;;
25391;SDS011;13329;48.402;11.718;2023-04-24T13:57:44;1.35;;;1.10;;
25391;SDS011;13329;48.402;11.718;2023-04-24T14:00:09;0.73;;;0.70;;
25391;SDS011;13329;48.402;11.718;2023-04-24T14:02:36;8.60;;;0.82;;
25391;SDS011;13329;48.402;11.718;2023-04-24T14:05:01;1.20;;;0.90;;
25391;SDS011;13329;48.402;11.718;2023-04-24T14:07:28;1.27;;;0.57;;
25391;SDS011;13329;48.402;11.718;2023-04-24T14:09:53;1.27;;;0.63;;
25391;SDS011;13329;48.402;11.718;2023-04-24T14:12:18;0.97;;;0.70;;
25391;SDS011;13329;48.402;11.718;2023-04-24T14:14:44;1.55;;;0.88;;
25391;SDS011;13329;48.402;11.718;2023-04-24T14:17:10;1.45;;;0.70;;
25391;SDS011;13329;48.402;11.718;2023-04-24T14:19:35;0.83;;;0.70;;
25391;SDS011;13329;48.402;11.718;2023-04-24T14:22:00;0.37;;;0.37;;
25391;SDS011;13329;48.402;11.718;2023-04-24T14:24:25;1.07;;;0.70;;
25391;SDS011;13329;48.402;11.718;2023-04-24T14:26:51;1.13;;;0.63;;
25391;SDS011;13329;48.402;11.718;2023-04-24T14:29:16;2.40;;;0.70;;